createdAt,value
2023-03-05T00:02:09.684Z,0.52
2023-03-05T00:06:09.619Z,0.51
2023-03-05T00:10:09.641Z,0.52
2023-03-05T00:14:09.676Z,0.51
2023-03-05T00:18:09.743Z,0.51
2023-03-05T00:22:09.758Z,0.51
2023-03-05T00:26:09.863Z,0.51
2023-03-05T00:30:09.888Z,0.51
2023-03-05T00:34:09.941Z,0.51
2023-03-05T00:38:09.988Z,0.51
2023-03-05T00:42:10.043Z,0.51
2023-03-05T00:46:10.126Z,0.51
2023-03-05T00:50:10.176Z,0.51
2023-03-05T00:54:10.210Z,0.52
2023-03-05T00:58:10.280Z,0.52
2023-03-05T01:02:10.368Z,0.51
2023-03-05T01:06:10.450Z,0.50
2023-03-05T01:10:10.491Z,0.52
2023-03-05T01:14:10.605Z,0.51
2023-03-05T01:18:10.637Z,0.52
2023-03-05T01:22:10.750Z,0.51
2023-03-05T01:26:10.811Z,0.52
2023-03-05T01:30:10.909Z,0.52
2023-03-05T01:34:11.003Z,0.52
2023-03-05T01:38:11.105Z,0.51
2023-03-05T01:42:11.245Z,0.51
2023-03-05T01:46:11.346Z,0.51
2023-03-05T01:50:11.400Z,0.50
2023-03-05T01:54:11.497Z,0.52
2023-03-05T01:58:11.621Z,0.51
2023-03-05T02:02:11.760Z,0.52
2023-03-05T02:06:11.838Z,0.52
2023-03-05T02:10:11.893Z,0.51
2023-03-05T02:14:12.044Z,0.52
2023-03-05T02:18:12.135Z,0.50
2023-03-05T02:22:12.218Z,0.52
2023-03-05T02:26:12.396Z,0.51
2023-03-05T02:30:12.467Z,0.51
2023-03-05T02:34:12.576Z,0.52
2023-03-05T02:38:12.667Z,0.52
2023-03-05T02:42:12.782Z,0.50
2023-03-05T02:46:12.973Z,0.51
2023-03-05T02:50:13.031Z,0.50
2023-03-05T02:54:13.177Z,0.51
2023-03-05T02:58:13.303Z,0.52
2023-03-05T03:02:13.481Z,0.53
2023-03-05T03:06:13.548Z,0.51
2023-03-05T03:10:13.700Z,0.53
2023-03-05T03:14:13.821Z,0.52
2023-03-05T03:18:13.984Z,0.52
2023-03-05T03:22:14.085Z,0.53
2023-03-05T03:26:14.211Z,0.53
2023-03-05T03:30:14.310Z,0.53
2023-03-05T03:34:14.473Z,0.53
2023-03-05T03:38:14.603Z,0.54
2023-03-05T03:42:14.727Z,0.54
2023-03-05T03:46:14.895Z,0.53
2023-03-05T03:50:15.013Z,0.53
2023-03-05T03:54:15.142Z,0.54
2023-03-05T03:58:15.295Z,0.54
2023-03-05T04:02:15.454Z,0.53
2023-03-05T04:06:15.593Z,0.54
2023-03-05T04:10:15.733Z,0.54
2023-03-05T04:14:15.892Z,0.53
2023-03-05T04:18:16.051Z,0.54
2023-03-05T04:22:16.207Z,0.54
2023-03-05T04:26:16.336Z,0.53
2023-03-05T04:30:16.473Z,0.54
2023-03-05T04:34:16.639Z,0.53
2023-03-05T04:38:16.794Z,0.53
2023-03-05T04:42:16.920Z,0.54
2023-03-05T04:46:17.131Z,0.54
2023-03-05T04:50:17.247Z,0.53
2023-03-05T04:54:17.390Z,0.53
2023-03-05T04:58:17.529Z,0.53
2023-03-05T05:02:17.699Z,0.53
2023-03-05T05:06:17.845Z,0.52
2023-03-05T05:10:17.949Z,0.53
2023-03-05T05:14:18.148Z,0.52
2023-03-05T05:18:18.286Z,0.52
2023-03-05T05:22:18.447Z,0.51
2023-03-05T05:26:18.615Z,0.53
2023-03-05T05:30:18.807Z,0.52
2023-03-05T05:34:18.984Z,0.53
2023-03-05T05:38:19.107Z,0.52
2023-03-05T05:42:19.309Z,0.51
2023-03-05T05:46:19.563Z,0.51
2023-03-05T05:50:19.607Z,0.52
2023-03-05T05:54:19.779Z,0.53
2023-03-05T05:58:19.897Z,0.52
2023-03-05T06:02:20.212Z,0.52
2023-03-05T06:06:20.233Z,0.52
2023-03-05T06:10:20.403Z,0.51
2023-03-05T06:14:20.537Z,0.51
2023-03-05T06:18:20.735Z,0.53
2023-03-05T06:22:20.902Z,0.52
2023-03-05T06:26:21.113Z,0.52
2023-03-05T06:30:21.242Z,0.53
2023-03-05T06:34:21.452Z,0.52
2023-03-05T06:38:21.586Z,0.51
2023-03-05T06:42:21.740Z,0.52
2023-03-05T06:46:22.026Z,0.51
2023-03-05T06:50:22.085Z,0.52
2023-03-05T06:54:22.272Z,0.52
2023-03-05T06:58:22.435Z,0.52
2023-03-05T07:02:22.606Z,0.50
2023-03-05T07:06:22.759Z,0.50
2023-03-05T07:10:22.890Z,0.52
2023-03-05T07:14:23.034Z,0.51
2023-03-05T07:18:23.182Z,0.51
2023-03-05T07:22:23.274Z,0.52
2023-03-05T07:26:23.402Z,0.52
2023-03-05T07:30:23.574Z,0.51
2023-03-05T07:34:25.611Z,0.51
2023-03-05T07:38:23.661Z,0.51
2023-03-05T07:42:23.650Z,0.51
2023-03-05T07:46:23.803Z,0.52
2023-03-05T07:50:23.529Z,0.51
2023-03-05T07:54:23.529Z,0.52
2023-03-05T07:58:23.465Z,0.52
2023-03-05T08:02:23.539Z,0.53
2023-03-05T08:06:23.400Z,0.52
2023-03-05T08:10:23.340Z,0.53
2023-03-05T08:14:23.294Z,0.53
2023-03-05T08:18:23.291Z,0.53
2023-03-05T08:22:23.242Z,0.53
2023-03-05T08:26:23.210Z,0.54
2023-03-05T08:30:23.165Z,0.53
2023-03-05T08:34:23.106Z,0.53
2023-03-05T08:38:23.076Z,0.55
2023-03-05T08:42:23.074Z,0.54
2023-03-05T08:46:23.049Z,0.55
2023-03-05T08:50:22.988Z,0.55
2023-03-05T08:54:23.008Z,0.55
2023-03-05T08:58:22.936Z,0.55
2023-03-05T09:02:23.092Z,0.56
2023-03-05T09:06:22.983Z,0.56
2023-03-05T09:10:23.039Z,0.57
2023-03-05T09:14:22.898Z,0.57
2023-03-05T09:18:22.905Z,0.59
2023-03-05T09:22:22.859Z,0.59
2023-03-05T09:26:22.832Z,0.59
2023-03-05T09:30:22.864Z,0.60
2023-03-05T09:34:22.759Z,0.60
2023-03-05T09:38:22.686Z,0.60
2023-03-05T09:42:22.700Z,0.60
2023-03-05T09:46:22.602Z,0.58
2023-03-05T09:50:22.631Z,0.58
2023-03-05T09:54:22.556Z,0.57
2023-03-05T09:58:22.642Z,0.57
2023-03-05T10:02:22.686Z,0.56
2023-03-05T10:06:22.703Z,0.57
2023-03-05T10:10:22.727Z,0.57
2023-03-05T10:14:22.734Z,0.56
2023-03-05T10:18:22.729Z,0.56
2023-03-05T10:22:22.743Z,0.57
2023-03-05T10:26:22.741Z,0.56
2023-03-05T10:30:22.775Z,0.56
2023-03-05T10:34:22.769Z,0.58
2023-03-05T10:38:22.781Z,0.57
2023-03-05T10:42:22.829Z,0.58
2023-03-05T10:46:22.809Z,0.57
2023-03-05T10:50:22.827Z,0.57
2023-03-05T10:54:22.878Z,0.58
2023-03-05T10:58:24.669Z,0.57
2023-03-05T11:02:23.033Z,0.58
2023-03-05T11:06:22.870Z,0.57
2023-03-05T11:10:23.053Z,0.57
2023-03-05T11:14:23.039Z,0.58
2023-03-05T11:18:22.995Z,0.58
2023-03-05T11:22:22.987Z,0.58
2023-03-05T11:26:22.959Z,0.58
2023-03-05T11:30:22.898Z,0.59
2023-03-05T11:34:22.858Z,0.58
2023-03-05T11:38:22.786Z,0.58
2023-03-05T11:42:22.818Z,0.57
2023-03-05T11:46:22.775Z,0.58
2023-03-05T11:50:22.710Z,0.58
2023-03-05T11:54:22.890Z,0.58
2023-03-05T11:58:23.076Z,0.59
2023-03-05T12:02:23.294Z,0.58
2023-03-05T12:06:23.382Z,0.57
2023-03-05T12:10:23.571Z,0.57
2023-03-05T12:14:23.712Z,0.57
2023-03-05T12:18:23.886Z,0.58
2023-03-05T12:22:24.067Z,0.57
2023-03-05T12:26:24.264Z,0.58
2023-03-05T12:30:24.597Z,0.57
2023-03-05T12:34:24.521Z,0.57
2023-03-05T12:38:27.058Z,0.56
2023-03-05T12:42:24.897Z,0.56
2023-03-05T12:46:25.046Z,0.56
2023-03-05T12:50:25.136Z,0.56
2023-03-05T12:54:25.279Z,0.57
2023-03-05T12:58:25.389Z,0.56
2023-03-05T13:02:25.413Z,0.56
2023-03-05T13:06:25.538Z,0.56
2023-03-05T13:10:25.660Z,0.55
2023-03-05T13:14:25.750Z,0.56
2023-03-05T13:18:25.889Z,0.55
2023-03-05T13:22:26.501Z,0.55
2023-03-05T13:26:26.056Z,0.54
2023-03-05T13:30:26.211Z,0.55
2023-03-05T13:34:29.823Z,0.54
2023-03-05T13:38:27.306Z,0.54
2023-03-05T13:42:26.238Z,0.53
2023-03-05T13:46:26.291Z,0.55
2023-03-05T13:50:26.251Z,0.54
2023-03-05T13:54:26.387Z,0.52
2023-03-05T13:58:26.518Z,0.53
2023-03-05T14:02:27.801Z,0.52
2023-03-05T14:06:26.772Z,0.52
2023-03-05T14:10:26.929Z,0.51
2023-03-05T14:14:27.145Z,0.52
2023-03-05T14:18:27.318Z,0.52
2023-03-05T14:22:27.493Z,0.50
2023-03-05T14:26:29.321Z,0.50
2023-03-05T14:30:27.956Z,0.52
2023-03-05T14:34:27.883Z,0.52
2023-03-05T14:38:27.822Z,0.52
2023-03-05T14:42:27.799Z,0.51
2023-03-05T14:46:27.825Z,0.52
2023-03-05T14:50:27.735Z,0.51
2023-03-05T14:54:27.687Z,0.52
2023-03-05T14:58:27.689Z,0.50
2023-03-05T15:02:27.649Z,0.51
2023-03-05T15:06:27.567Z,0.51
2023-03-05T15:10:27.571Z,0.51
2023-03-05T15:14:27.500Z,0.52
2023-03-05T15:18:27.480Z,0.51
2023-03-05T15:22:27.427Z,0.51
2023-03-05T15:26:27.422Z,0.51
2023-03-05T15:30:27.383Z,0.51
2023-03-05T15:34:27.333Z,0.51
2023-03-05T15:38:27.320Z,0.51
2023-03-05T15:42:27.329Z,0.51
2023-03-05T15:46:27.393Z,0.52
2023-03-05T15:50:27.378Z,0.51
2023-03-05T15:54:27.415Z,0.51
2023-03-05T15:58:27.427Z,0.52
2023-03-05T16:02:27.407Z,0.52
2023-03-05T16:06:27.354Z,0.51
2023-03-05T16:10:27.402Z,0.51
2023-03-05T16:14:27.349Z,0.51
2023-03-05T16:18:27.321Z,0.53
2023-03-05T16:22:27.342Z,0.53
2023-03-05T16:26:27.329Z,0.53
2023-03-05T16:30:27.345Z,0.53
2023-03-05T16:34:27.425Z,0.52
2023-03-05T16:38:27.333Z,0.53
2023-03-05T16:42:27.347Z,0.53
2023-03-05T16:46:27.442Z,0.52
2023-03-05T16:50:27.421Z,0.51
2023-03-05T16:54:27.531Z,0.52
2023-03-05T16:58:27.503Z,0.53
2023-03-05T17:02:27.584Z,0.52
2023-03-05T17:06:27.625Z,0.51
2023-03-05T17:10:27.594Z,0.51
2023-03-05T17:14:27.649Z,0.52
2023-03-05T17:18:27.692Z,0.51
2023-03-05T17:22:27.740Z,0.52
2023-03-05T17:26:27.798Z,0.52
2023-03-05T17:30:27.866Z,0.51
2023-03-05T17:34:35.879Z,0.51
2023-03-05T17:38:28.928Z,0.52
2023-03-05T17:42:27.900Z,0.52
2023-03-05T17:46:27.838Z,0.53
2023-03-05T17:50:27.842Z,0.51
2023-03-05T17:54:27.931Z,0.52
2023-03-05T17:58:28.025Z,0.51
2023-03-05T18:02:28.137Z,0.52
2023-03-05T18:06:28.260Z,0.52
2023-03-05T18:10:28.355Z,0.51
2023-03-05T18:14:28.453Z,0.51
2023-03-05T18:18:28.534Z,0.52
2023-03-05T18:22:28.714Z,0.52
2023-03-05T18:26:28.728Z,0.50
2023-03-05T18:30:28.886Z,0.52
2023-03-05T18:34:28.996Z,0.51
2023-03-05T18:38:29.081Z,0.51
2023-03-05T18:42:29.225Z,0.51
2023-03-05T18:46:29.413Z,0.51
2023-03-05T18:50:29.487Z,0.51
2023-03-05T18:54:29.617Z,0.52
2023-03-05T18:58:29.760Z,0.51
2023-03-05T19:02:29.919Z,0.51
2023-03-05T19:06:30.031Z,0.51
2023-03-05T19:10:30.133Z,0.51
2023-03-05T19:14:30.302Z,0.51
2023-03-05T19:18:30.460Z,0.51
2023-03-05T19:22:30.602Z,0.51
2023-03-05T19:26:30.780Z,0.51
2023-03-05T19:30:30.893Z,0.50
2023-03-05T19:34:31.041Z,0.51
2023-03-05T19:38:31.158Z,0.50
2023-03-05T19:42:31.336Z,0.50
2023-03-05T19:46:31.593Z,0.50
2023-03-05T19:50:34.362Z,0.50
2023-03-05T19:54:31.634Z,0.51
2023-03-05T19:58:31.616Z,0.50
2023-03-05T20:02:31.557Z,0.50
2023-03-05T20:06:31.525Z,0.50
2023-03-05T20:10:31.478Z,0.50
2023-03-05T20:14:31.488Z,0.50
2023-03-05T20:18:31.390Z,0.51
2023-03-05T20:22:31.392Z,0.51
2023-03-05T20:26:31.318Z,0.50
2023-03-05T20:30:31.318Z,0.51
2023-03-05T20:34:31.331Z,0.51
2023-03-05T20:38:31.501Z,0.51
2023-03-05T20:42:31.493Z,0.51
2023-03-05T20:46:31.475Z,0.50
2023-03-05T20:50:31.406Z,0.50
2023-03-05T20:54:31.427Z,0.50
2023-03-05T20:58:31.636Z,0.51
2023-03-05T21:02:31.305Z,0.51
2023-03-05T21:06:31.294Z,0.51
2023-03-05T21:10:31.207Z,0.51
2023-03-05T21:14:31.233Z,0.51
2023-03-05T21:18:31.197Z,0.51
2023-03-05T21:22:31.180Z,0.51
2023-03-05T21:26:31.149Z,0.50
2023-03-05T21:30:31.101Z,0.51
2023-03-05T21:34:31.104Z,0.50
2023-03-05T21:38:31.056Z,0.50
2023-03-05T21:42:30.967Z,0.50
2023-03-05T21:46:30.942Z,0.50
2023-03-05T21:50:30.909Z,0.51
2023-03-05T21:54:30.881Z,0.51
2023-03-05T21:58:30.884Z,0.51
2023-03-05T22:02:30.832Z,0.51
2023-03-05T22:06:30.764Z,0.51
2023-03-05T22:10:30.745Z,0.51
2023-03-05T22:14:30.703Z,0.51
2023-03-05T22:18:30.685Z,0.51
2023-03-05T22:22:30.655Z,0.51
2023-03-05T22:26:30.607Z,0.51
2023-03-05T22:30:30.616Z,0.51
2023-03-05T22:34:30.520Z,0.50
2023-03-05T22:38:30.652Z,0.51
2023-03-05T22:42:30.582Z,0.51
2023-03-05T22:46:30.567Z,0.51
2023-03-05T22:50:30.492Z,0.51
2023-03-05T22:54:30.506Z,0.51
2023-03-05T22:58:30.410Z,0.50
2023-03-05T23:02:30.427Z,0.50
2023-03-05T23:06:30.400Z,0.51
2023-03-05T23:10:30.330Z,0.50
2023-03-05T23:14:30.308Z,0.50
2023-03-05T23:18:30.285Z,0.51
2023-03-05T23:22:30.354Z,0.51
2023-03-05T23:26:30.518Z,0.52
2023-03-05T23:30:30.646Z,0.51
2023-03-05T23:34:30.835Z,0.51
2023-03-05T23:38:30.990Z,0.51
2023-03-05T23:42:31.100Z,0.51
2023-03-05T23:46:31.217Z,0.51
2023-03-05T23:50:31.190Z,0.51
2023-03-05T23:54:31.175Z,0.51
2023-03-05T23:58:31.179Z,0.51
